Time;durP1;ratioP1;P1;durP2;ratioP2;P2;SDS_P1;SDS_P2;PMS_P1;PMS_P2;Temp;Humidity;BMP_temperature;BMP_pressure;BME280_temperature;BME280_humidity;BME280_pressure;Samples;Min_cycle;Max_cycle;Signal;HPM_P1;HPM_P2
2022/09/06 00:01:15;;;;;;;4.95;2.63;;;20.50;99.90;;;;;;5094692;27;20075;-49
2022/09/06 00:03:40;;;;;;;11.65;3.20;;;20.40;99.90;;;;;;5095144;27;20032;-49
2022/09/06 00:06:12;;;;;;;10.68;2.97;;;20.30;99.90;;;;;;5094108;27;20035;-47
2022/09/06 00:08:38;;;;;;;7.78;3.17;;;20.20;99.90;;;;;;5093462;27;20399;-50
2022/09/06 00:11:05;;;;;;;6.88;2.90;;;20.30;99.90;;;;;;5094177;28;20039;-50
2022/09/06 00:13:32;;;;;;;7.75;3.25;;;20.20;99.90;;;;;;5093511;27;20096;-54
2022/09/06 00:16:17;;;;;;;9.70;3.13;;;20.10;99.90;;;;;;5094618;28;20054;-49
2022/09/06 00:18:44;;;;;;;9.23;3.17;;;20.20;99.90;;;;;;5093536;27;20040;-48
2022/09/06 00:21:22;;;;;;;10.13;3.25;;;20.30;99.90;;;;;;5093128;28;20346;-49
2022/09/06 00:23:48;;;;;;;11.18;3.33;;;19.90;99.90;;;;;;5094414;27;20128;-50
2022/09/06 00:26:14;;;;;;;8.35;3.35;;;19.90;99.90;;;;;;5093438;27;20027;-52
2022/09/06 00:28:40;;;;;;;6.10;2.83;;;19.80;99.90;;;;;;5093682;27;20051;-49
2022/09/06 00:31:13;;;;;;;5.85;3.20;;;19.90;99.90;;;;;;5094108;28;20103;-48
2022/09/06 00:33:40;;;;;;;5.78;3.00;;;19.80;99.90;;;;;;5092666;28;20168;-50
2022/09/06 00:36:06;;;;;;;10.35;2.97;;;19.80;99.90;;;;;;5094409;27;20051;-48
2022/09/06 00:38:32;;;;;;;8.27;3.13;;;19.50;99.90;;;;;;5094317;28;20101;-47
2022/09/06 00:40:58;;;;;;;7.15;3.42;;;19.60;99.90;;;;;;5091351;28;20531;-49
2022/09/06 00:43:24;;;;;;;10.05;3.17;;;19.70;99.90;;;;;;5093862;27;20051;-47
2022/09/06 00:45:49;;;;;;;10.75;3.35;;;19.80;99.90;;;;;;5093382;27;20047;-50
2022/09/06 00:48:16;;;;;;;5.63;3.17;;;19.60;99.90;;;;;;5092996;28;20748;-45
2022/09/06 00:50:43;;;;;;;5.63;3.22;;;19.50;99.90;;;;;;5092785;28;20076;-48
2022/09/06 00:53:09;;;;;;;7.85;3.38;;;19.40;99.90;;;;;;5092960;28;20054;-48
2022/09/06 00:55:35;;;;;;;9.23;3.13;;;19.40;99.90;;;;;;5094695;28;20036;-49
2022/09/06 00:58:01;;;;;;;9.30;3.22;;;19.20;99.90;;;;;;5092825;28;20048;-48
2022/09/06 01:00:27;;;;;;;6.43;3.38;;;19.40;99.90;;;;;;5094826;28;20571;-49
2022/09/06 01:02:53;;;;;;;13.90;3.55;;;19.10;99.90;;;;;;5093761;28;20127;-49
2022/09/06 01:05:22;;;;;;;6.85;3.33;;;19.10;99.90;;;;;;5091743;28;20420;-48
2022/09/06 01:08:04;;;;;;;6.55;3.08;;;19.10;99.90;;;;;;5093636;28;20091;-49
2022/09/06 01:10:49;;;;;;;9.20;3.45;;;19.10;99.90;;;;;;5094268;28;20040;-48
2022/09/06 01:13:36;;;;;;;10.15;3.53;;;19.10;99.90;;;;;;5098328;27;20051;-49
2022/09/06 01:16:14;;;;;;;8.95;3.42;;;19.00;99.90;;;;;;5097653;27;20055;-50
2022/09/06 01:18:59;;;;;;;10.88;3.22;;;19.00;99.90;;;;;;5097737;27;20047;-50
2022/09/06 01:21:28;;;;;;;10.10;3.47;;;18.90;99.90;;;;;;5113001;27;20118;-50
2022/09/06 01:24:15;;;;;;;6.70;3.53;;;18.90;99.90;;;;;;5096599;27;20055;-49
2022/09/06 01:27:02;;;;;;;9.25;3.22;;;18.90;99.90;;;;;;5096310;28;20069;-48
2022/09/06 01:29:50;;;;;;;7.78;3.47;;;20.70;99.90;;;;;;5096884;27;20305;-47
2022/09/06 01:32:27;;;;;;;8.40;3.53;;;18.70;99.90;;;;;;5098974;27;20043;-49
2022/09/06 01:35:14;;;;;;;7.95;3.55;;;18.80;99.90;;;;;;5096274;27;20044;-47
2022/09/06 01:37:40;;;;;;;9.85;4.38;;;18.80;99.90;;;;;;5096414;27;20535;-48
2022/09/06 01:40:07;;;;;;;10.80;3.70;;;18.80;99.90;;;;;;5096986;27;20119;-49
2022/09/06 01:42:34;;;;;;;8.45;3.22;;;18.60;99.90;;;;;;5096265;27;20122;-48
2022/09/06 01:45:01;;;;;;;6.45;3.75;;;18.80;99.90;;;;;;5096391;27;20035;-49
2022/09/06 01:47:48;;;;;;;11.60;4.03;;;19.00;99.90;;;;;;5096344;27;20078;-47
2022/09/06 01:50:51;;;;;;;7.90;3.75;;;18.80;99.90;;;;;;5096286;27;20048;-48
2022/09/06 01:53:32;;;;;;;7.30;3.95;;;19.30;99.90;;;;;;5097248;28;20588;-48
2022/09/06 01:56:16;;;;;;;11.00;4.07;;;17.70;99.90;;;;;;5095854;27;20081;-49
2022/09/06 01:59:17;;;;;;;9.38;3.85;;;18.90;99.90;;;;;;5095815;28;20093;-48
2022/09/06 02:01:58;;;;;;;8.63;3.63;;;19.00;99.90;;;;;;5095649;27;20032;-47
2022/09/06 02:04:26;;;;;;;7.32;3.33;;;19.00;99.90;;;;;;5095090;27;20044;-47
2022/09/06 02:06:59;;;;;;;11.20;3.97;;;18.70;99.90;;;;;;5095887;28;20346;-47
2022/09/06 02:09:28;;;;;;;7.75;3.25;;;18.80;99.90;;;;;;5096179;27;20048;-50
2022/09/06 02:11:57;;;;;;;9.00;3.63;;;18.70;99.90;;;;;;5095911;28;20500;-47
2022/09/06 02:15:01;;;;;;;8.10;3.50;;;18.90;99.90;;;;;;5097295;27;20055;-48
2022/09/06 02:17:33;;;;;;;7.07;3.33;;;18.70;99.90;;;;;;5061517;27;20617;-47
2022/09/06 02:20:08;;;;;;;;;;;18.50;99.90;;;;;;5098101;27;20051;-48
2022/09/06 02:22:40;;;;;;;6.70;3.42;;;18.90;99.90;;;;;;5095169;28;20463;-49
2022/09/06 02:25:09;;;;;;;9.60;3.60;;;18.70;99.90;;;;;;5095592;27;20075;-49
2022/09/06 02:27:34;;;;;;;6.68;3.63;;;18.80;99.90;;;;;;5096433;27;20037;-49
2022/09/06 02:30:01;;;;;;;8.60;3.67;;;19.40;99.90;;;;;;5097259;27;20097;-50
2022/09/06 02:32:29;;;;;;;6.10;3.40;;;18.60;99.90;;;;;;5096243;27;20054;-50
2022/09/06 02:34:56;;;;;;;6.40;3.53;;;18.40;99.90;;;;;;5095247;27;20039;-46
2022/09/06 02:37:24;;;;;;;6.72;3.40;;;18.60;99.90;;;;;;5096938;28;20065;-49
2022/09/06 02:39:54;;;;;;;9.55;4.00;;;18.60;99.90;;;;;;5096536;27;20133;-48
2022/09/06 02:42:21;;;;;;;7.75;3.95;;;18.60;99.90;;;;;;5095979;27;20712;-47
2022/09/06 02:44:48;;;;;;;7.70;3.80;;;18.40;99.90;;;;;;5095204;28;20069;-49
2022/09/06 02:47:14;;;;;;;6.13;3.63;;;18.40;99.90;;;;;;5095650;27;20051;-51
2022/09/06 02:49:39;;;;;;;7.10;3.58;;;18.40;99.90;;;;;;5096948;27;20087;-46
2022/09/06 02:52:05;;;;;;;8.68;3.90;;;18.60;99.90;;;;;;5095223;27;20132;-48
2022/09/06 02:54:31;;;;;;;6.45;3.50;;;18.50;99.90;;;;;;5094485;27;20694;-49
2022/09/06 02:56:57;;;;;;;10.05;4.32;;;18.60;99.90;;;;;;5095774;27;20345;-50
2022/09/06 02:59:22;;;;;;;8.63;4.10;;;18.40;99.90;;;;;;5095371;27;20060;-48
2022/09/06 03:01:48;;;;;;;7.43;3.83;;;18.40;99.90;;;;;;5096354;27;20065;-49
2022/09/06 03:04:14;;;;;;;8.25;4.20;;;18.30;99.90;;;;;;5095085;27;21010;-49
2022/09/06 03:06:39;;;;;;;9.07;3.80;;;18.40;99.90;;;;;;5095491;27;20487;-50
2022/09/06 03:09:05;;;;;;;11.13;4.03;;;18.30;99.90;;;;;;5094623;27;20035;-47
2022/09/06 03:11:31;;;;;;;8.15;3.60;;;18.40;99.90;;;;;;5093985;27;20100;-48
2022/09/06 03:13:57;;;;;;;6.65;3.53;;;18.50;99.90;;;;;;5094573;27;20046;-47
2022/09/06 03:16:23;;;;;;;6.55;4.10;;;18.20;99.90;;;;;;5095055;27;20054;-50
2022/09/06 03:18:48;;;;;;;8.30;4.10;;;18.20;99.90;;;;;;5094195;27;20047;-47
2022/09/06 03:21:14;;;;;;;8.38;4.07;;;18.40;99.90;;;;;;5095422;27;20081;-46
2022/09/06 03:23:40;;;;;;;7.68;4.07;;;18.30;99.90;;;;;;5094188;28;20043;-46
2022/09/06 03:26:06;;;;;;;6.97;4.22;;;18.40;99.90;;;;;;5095349;27;20134;-50
2022/09/06 03:28:32;;;;;;;8.70;4.28;;;18.20;99.90;;;;;;5093833;27;20126;-48
2022/09/06 03:30:58;;;;;;;9.85;4.30;;;16.20;99.90;;;;;;5094907;27;20114;-50
2022/09/06 03:33:24;;;;;;;7.50;4.32;;;18.40;99.90;;;;;;5095786;28;20407;-48
2022/09/06 03:35:58;;;;;;;8.25;4.68;;;18.20;99.90;;;;;;5093651;28;20097;-47
2022/09/06 03:38:25;;;;;;;10.52;3.97;;;18.30;99.90;;;;;;5093348;27;20121;-50
2022/09/06 03:40:51;;;;;;;7.07;3.63;;;18.40;99.90;;;;;;5094459;28;20134;-50
2022/09/06 03:43:18;;;;;;;8.30;4.00;;;18.40;99.90;;;;;;5095305;28;20130;-47
2022/09/06 03:45:46;;;;;;;8.55;3.78;;;18.10;99.90;;;;;;5094362;27;20047;-49
2022/09/06 03:48:12;;;;;;;7.65;4.00;;;18.30;99.90;;;;;;5092672;28;20123;-48
2022/09/06 03:50:38;;;;;;;6.43;4.00;;;18.40;99.90;;;;;;5094359;28;20466;-49
2022/09/06 03:53:03;;;;;;;9.70;3.70;;;18.10;99.90;;;;;;5093747;28;20055;-46
2022/09/06 03:55:29;;;;;;;8.43;4.28;;;18.20;99.90;;;;;;5095036;27;20032;-48
2022/09/06 03:57:55;;;;;;;8.05;3.58;;;18.20;99.90;;;;;;5094601;28;20043;-48
2022/09/06 04:00:20;;;;;;;7.05;4.10;;;17.90;99.90;;;;;;5094961;28;20456;-49
2022/09/06 04:02:46;;;;;;;6.63;4.22;;;18.20;99.90;;;;;;5095490;27;20177;-49
2022/09/06 04:05:12;;;;;;;7.90;3.90;;;18.00;99.90;;;;;;5095618;27;20039;-50
2022/09/06 04:07:38;;;;;;;9.35;4.32;;;18.20;99.90;;;;;;5095428;27;20480;-49
2022/09/06 04:10:04;;;;;;;6.97;4.55;;;18.10;99.90;;;;;;5093708;27;20500;-46
2022/09/06 04:12:30;;;;;;;8.15;3.92;;;18.00;99.90;;;;;;5094494;27;20043;-49
2022/09/06 04:14:55;;;;;;;6.65;4.07;;;18.00;99.90;;;;;;5094647;27;20175;-49
2022/09/06 04:17:21;;;;;;;9.45;3.78;;;18.10;99.90;;;;;;5093992;28;20080;-49
2022/09/06 04:19:47;;;;;;;6.65;4.18;;;18.20;99.90;;;;;;5093636;28;20519;-45
2022/09/06 04:22:13;;;;;;;9.93;4.20;;;18.10;99.90;;;;;;5093292;28;20062;-49
2022/09/06 04:24:38;;;;;;;7.20;4.78;;;18.10;99.90;;;;;;5093871;27;20050;-46
2022/09/06 04:27:04;;;;;;;5.95;4.00;;;18.10;99.90;;;;;;5094723;27;20388;-47
2022/09/06 04:29:30;;;;;;;5.88;4.40;;;18.10;99.90;;;;;;5093626;28;20435;-49
2022/09/06 04:31:55;;;;;;;5.90;4.00;;;18.10;99.90;;;;;;5095038;28;20047;-46
2022/09/06 04:34:21;;;;;;;6.43;4.43;;;18.20;99.90;;;;;;5092422;27;20063;-49
2022/09/06 04:36:47;;;;;;;7.97;4.63;;;18.00;99.90;;;;;;5092963;27;20063;-47
2022/09/06 04:39:12;;;;;;;7.95;4.55;;;18.20;99.90;;;;;;5093268;28;20062;-49
2022/09/06 04:41:38;;;;;;;6.72;4.10;;;18.10;99.90;;;;;;5094150;28;20070;-48
2022/09/06 04:44:04;;;;;;;8.80;4.47;;;17.90;99.90;;;;;;5093905;28;20049;-44
2022/09/06 04:46:30;;;;;;;10.02;5.10;;;17.80;99.90;;;;;;5092553;28;20032;-45
2022/09/06 04:48:56;;;;;;;8.52;5.35;;;17.70;99.90;;;;;;5093032;28;20122;-44
2022/09/06 04:51:23;;;;;;;7.18;5.30;;;17.70;99.90;;;;;;5092796;28;20519;-45
2022/09/06 04:53:49;;;;;;;8.00;5.60;;;17.60;99.90;;;;;;5093389;28;20052;-47
2022/09/06 04:56:18;;;;;;;9.50;5.85;;;19.90;99.90;;;;;;5093116;28;20084;-44
2022/09/06 04:58:46;;;;;;;11.00;5.57;;;17.50;99.90;;;;;;5092732;28;20047;-45
2022/09/06 05:01:12;;;;;;;9.13;5.90;;;17.40;99.90;;;;;;5094070;28;20202;-44
2022/09/06 05:03:38;;;;;;;14.05;6.65;;;17.20;99.90;;;;;;5094572;28;20187;-44
2022/09/06 05:06:12;;;;;;;10.10;5.82;;;17.30;99.90;;;;;;5094793;28;20128;-47
2022/09/06 05:08:40;;;;;;;8.30;5.97;;;17.30;99.90;;;;;;5093463;28;20044;-45
2022/09/06 05:11:07;;;;;;;9.20;6.10;;;17.10;99.90;;;;;;5093319;28;20042;-44
2022/09/06 05:13:33;;;;;;;7.80;6.75;;;16.90;99.90;;;;;;5093793;28;20162;-47
2022/09/06 05:16:03;;;;;;;8.35;6.40;;;17.10;99.90;;;;;;5093146;28;20225;-46
2022/09/06 05:18:30;;;;;;;9.85;6.85;;;15.90;99.90;;;;;;5093298;28;20082;-47
2022/09/06 05:20:56;;;;;;;8.35;6.82;;;16.80;99.90;;;;;;5091289;28;20047;-47
2022/09/06 05:23:21;;;;;;;9.57;7.20;;;16.80;99.90;;;;;;5093113;28;20036;-47
2022/09/06 05:25:48;;;;;;;9.40;6.80;;;16.70;99.90;;;;;;5091810;28;20048;-46
2022/09/06 05:28:14;;;;;;;10.15;7.63;;;16.60;99.90;;;;;;5091677;28;20067;-47
2022/09/06 05:30:40;;;;;;;11.10;8.20;;;16.50;99.90;;;;;;5092943;28;20054;-45
2022/09/06 05:33:07;;;;;;;11.63;8.20;;;16.60;99.90;;;;;;5092808;28;20044;-48
2022/09/06 05:35:33;;;;;;;8.90;7.53;;;16.70;99.90;;;;;;5092742;28;20035;-45
2022/09/06 05:37:58;;;;;;;10.20;8.20;;;17.40;99.90;;;;;;5092636;28;20067;-46
2022/09/06 05:40:24;;;;;;;10.00;8.07;;;16.40;99.90;;;;;;5092253;28;21313;-46
2022/09/06 05:42:50;;;;;;;8.25;7.25;;;16.40;99.90;;;;;;5093293;28;20118;-44
2022/09/06 05:45:16;;;;;;;10.65;7.72;;;16.50;99.90;;;;;;5091613;28;20131;-44
2022/09/06 05:47:42;;;;;;;10.45;7.45;;;16.40;99.90;;;;;;5091639;28;20069;-46
2022/09/06 05:50:08;;;;;;;9.32;7.85;;;16.50;99.90;;;;;;5091965;28;20048;-44
2022/09/06 05:52:35;;;;;;;12.27;7.80;;;16.40;99.90;;;;;;5092784;28;20058;-47
2022/09/06 05:55:01;;;;;;;9.00;8.10;;;16.60;99.90;;;;;;5089843;28;20046;-46
2022/09/06 05:57:27;;;;;;;8.85;7.88;;;17.70;99.90;;;;;;5091705;28;20047;-44
2022/09/06 05:59:53;;;;;;;11.95;8.23;;;16.50;99.90;;;;;;5097055;27;20504;-45
2022/09/06 06:02:22;;;;;;;13.95;7.72;;;16.70;99.90;;;;;;5096333;27;20118;-45
2022/09/06 06:04:48;;;;;;;12.85;8.07;;;16.30;99.90;;;;;;5095601;27;20283;-44
2022/09/06 06:07:14;;;;;;;12.82;9.10;;;16.50;99.90;;;;;;5096030;27;20106;-45
2022/09/06 06:09:41;;;;;;;10.38;8.00;;;16.80;99.90;;;;;;5093723;27;20103;-45
2022/09/06 06:12:07;;;;;;;9.68;8.40;;;16.70;99.90;;;;;;5097365;27;20055;-46
2022/09/06 06:14:33;;;;;;;11.52;8.52;;;16.80;99.90;;;;;;5095565;27;20046;-47
2022/09/06 06:16:59;;;;;;;9.40;8.18;;;15.10;99.90;;;;;;5095519;27;20039;-46
2022/09/06 06:19:25;;;;;;;9.35;8.40;;;16.70;99.90;;;;;;5096763;27;20032;-46
2022/09/06 06:21:52;;;;;;;13.00;8.60;;;16.80;99.90;;;;;;5095708;27;20514;-45
2022/09/06 06:24:18;;;;;;;13.35;8.38;;;16.80;99.90;;;;;;5095332;27;20140;-47
2022/09/06 06:26:43;;;;;;;12.02;9.20;;;17.10;99.90;;;;;;5095536;27;20043;-46
2022/09/06 06:29:09;;;;;;;15.27;8.90;;;17.00;99.90;;;;;;5096245;27;20039;-49
2022/09/06 06:31:37;;;;;;;13.65;8.40;;;17.20;99.90;;;;;;5096395;27;20393;-44
2022/09/06 06:34:03;;;;;;;10.57;8.13;;;17.10;99.90;;;;;;5097329;27;20081;-48
2022/09/06 06:36:30;;;;;;;10.10;7.68;;;17.20;99.90;;;;;;5095493;27;20157;-45
2022/09/06 06:38:57;;;;;;;11.73;8.32;;;17.10;99.90;;;;;;5096625;27;21283;-45
2022/09/06 06:41:26;;;;;;;12.27;8.38;;;17.10;99.90;;;;;;5096384;28;20052;-45
2022/09/06 06:43:56;;;;;;;16.70;8.27;;;17.10;99.90;;;;;;5096020;27;20044;-46
2022/09/06 06:46:25;;;;;;;11.45;8.05;;;17.40;99.90;;;;;;5095142;27;20443;-47
2022/09/06 06:48:53;;;;;;;9.10;8.18;;;17.20;99.90;;;;;;5094365;28;20202;-47
2022/09/06 06:51:20;;;;;;;10.55;8.50;;;17.30;99.90;;;;;;5094727;28;20063;-49
2022/09/06 06:53:46;;;;;;;9.38;8.27;;;17.30;99.90;;;;;;5095462;27;20047;-49
2022/09/06 06:56:34;;;;;;;12.50;9.65;;;17.50;99.90;;;;;;5094533;27;20036;-46
2022/09/06 06:59:01;;;;;;;11.25;8.27;;;19.70;99.90;;;;;;5094521;27;20044;-47
2022/09/06 07:01:30;;;;;;;10.00;8.50;;;17.50;99.90;;;;;;5095650;27;20073;-47
2022/09/06 07:03:56;;;;;;;11.55;8.50;;;17.90;99.90;;;;;;5096712;27;20443;-44
2022/09/06 07:06:22;;;;;;;12.15;8.70;;;17.60;99.90;;;;;;5092996;27;20123;-45
2022/09/06 07:08:48;;;;;;;9.80;8.65;;;17.50;99.90;;;;;;5094256;28;20118;-46
2022/09/06 07:11:16;;;;;;;10.95;9.25;;;17.70;99.90;;;;;;5092665;27;20059;-46
2022/09/06 07:13:42;;;;;;;9.98;8.98;;;17.70;99.90;;;;;;5093887;27;21036;-45
2022/09/06 07:16:09;;;;;;;12.20;8.65;;;17.70;99.90;;;;;;5095340;27;20036;-45
2022/09/06 07:18:36;;;;;;;13.82;9.63;;;17.60;99.90;;;;;;5092766;28;20036;-46
2022/09/06 07:21:02;;;;;;;12.18;8.68;;;17.70;99.90;;;;;;5094279;28;20047;-46
2022/09/06 07:23:28;;;;;;;10.80;9.70;;;18.00;99.90;;;;;;5094772;28;20048;-45
2022/09/06 07:25:54;;;;;;;8.98;7.85;;;17.50;99.90;;;;;;5094520;28;20054;-46
2022/09/06 07:28:19;;;;;;;12.57;9.10;;;17.70;99.90;;;;;;5094453;28;20035;-50
2022/09/06 07:30:45;;;;;;;10.48;8.52;;;17.60;99.90;;;;;;5094435;28;20066;-48
2022/09/06 07:33:11;;;;;;;13.90;9.00;;;17.90;99.90;;;;;;5095571;28;20036;-47
2022/09/06 07:35:37;;;;;;;16.33;8.70;;;17.80;99.90;;;;;;5095278;28;20046;-46
2022/09/06 07:38:03;;;;;;;10.93;8.55;;;18.10;99.90;;;;;;5094483;28;20058;-48
2022/09/06 07:40:30;;;;;;;10.10;8.52;;;18.00;99.90;;;;;;5092650;27;20122;-44
2022/09/06 07:42:59;;;;;;;9.98;8.25;;;18.30;99.90;;;;;;5092801;28;20051;-45
2022/09/06 07:45:25;;;;;;;11.43;8.63;;;18.20;99.90;;;;;;5095773;28;20094;-48
2022/09/06 07:47:57;;;;;;;13.65;8.10;;;18.40;99.90;;;;;;5094721;27;20082;-50
2022/09/06 07:50:27;;;;;;;10.32;8.55;;;18.70;99.90;;;;;;5093763;28;20139;-46
2022/09/06 07:52:52;;;;;;;12.68;8.48;;;19.10;99.90;;;;;;5095109;28;20047;-50
2022/09/06 07:55:18;;;;;;;10.63;7.57;;;19.40;99.90;;;;;;5094258;27;20031;-48
2022/09/06 07:57:44;;;;;;;15.93;8.63;;;20.20;99.90;;;;;;5094452;28;20077;-47
2022/09/06 08:00:11;;;;;;;10.32;7.70;;;20.30;99.90;;;;;;5094175;28;20046;-48
2022/09/06 08:02:37;;;;;;;10.75;7.53;;;20.70;99.90;;;;;;5095662;28;20069;-45
2022/09/06 08:05:03;;;;;;;10.82;8.63;;;21.00;99.90;;;;;;5096098;27;20043;-49
2022/09/06 08:07:28;;;;;;;10.65;8.10;;;20.80;99.90;;;;;;5094007;28;20031;-46
2022/09/06 08:09:54;;;;;;;14.23;8.10;;;21.00;99.90;;;;;;5093303;27;20043;-51
2022/09/06 08:12:20;;;;;;;13.27;7.28;;;20.80;99.90;;;;;;5092955;27;20048;-49
2022/09/06 08:14:46;;;;;;;11.05;8.25;;;21.00;99.90;;;;;;5093597;28;20127;-51
2022/09/06 08:17:11;;;;;;;13.18;7.60;;;21.20;99.90;;;;;;5093594;28;20488;-44
2022/09/06 08:19:37;;;;;;;8.45;6.65;;;21.20;99.90;;;;;;5093509;27;20058;-47
2022/09/06 08:22:03;;;;;;;10.02;7.18;;;21.40;99.90;;;;;;5093608;27;20035;-48
2022/09/06 08:24:29;;;;;;;11.63;7.50;;;21.50;99.90;;;;;;5090794;27;20746;-48
2022/09/06 08:26:54;;;;;;;11.07;7.70;;;21.40;99.90;;;;;;5093115;27;20039;-48
2022/09/06 08:29:20;;;;;;;8.65;7.57;;;21.60;99.90;;;;;;5091740;28;20492;-49
2022/09/06 08:31:46;;;;;;;8.90;7.35;;;21.50;99.90;;;;;;5092177;28;20050;-47
2022/09/06 08:34:13;;;;;;;9.55;7.15;;;21.70;99.90;;;;;;5094201;27;20132;-49
2022/09/06 08:36:39;;;;;;;8.55;6.55;;;21.70;99.90;;;;;;5094140;27;20047;-44
2022/09/06 08:39:08;;;;;;;9.30;6.75;;;21.50;99.90;;;;;;5094021;27;20043;-45
2022/09/06 08:41:50;;;;;;;9.55;7.32;;;21.40;99.90;;;;;;5092652;28;20048;-47
2022/09/06 08:44:32;;;;;;;17.58;7.53;;;21.80;99.90;;;;;;5094508;27;20036;-46
2022/09/06 08:47:09;;;;;;;9.63;7.53;;;21.90;99.90;;;;;;5092852;28;20619;-45
2022/09/06 08:49:56;;;;;;;10.13;6.25;;;22.10;99.90;;;;;;5094014;27;20062;-47
2022/09/06 08:52:34;;;;;;;9.93;6.80;;;22.00;99.90;;;;;;5094599;27;20031;-48
2022/09/06 08:55:34;;;;;;;9.52;7.40;;;22.10;99.90;;;;;;5093751;28;20967;-49
2022/09/06 08:58:15;;;;;;;8.57;6.60;;;22.10;99.90;;;;;;5093602;28;20040;-50
2022/09/06 09:00:51;;;;;;;11.57;7.00;;;22.30;99.90;;;;;;5093858;28;20061;-48
2022/09/06 09:03:37;;;;;;;12.20;6.85;;;22.40;99.90;;;;;;5094757;28;20122;-47
2022/09/06 09:06:06;;;;;;;9.35;7.70;;;22.60;99.90;;;;;;5093342;28;20474;-47
2022/09/06 09:08:36;;;;;;;10.98;7.70;;;22.50;99.90;;;;;;5093250;28;20054;-48
2022/09/06 09:11:05;;;;;;;12.55;7.20;;;22.50;99.90;;;;;;5095099;28;20043;-45
2022/09/06 09:13:46;;;;;;;15.80;8.05;;;22.60;99.90;;;;;;5094487;28;20043;-47
2022/09/06 09:16:13;;;;;;;12.95;7.53;;;22.60;99.90;;;;;;5092961;28;20047;-47
2022/09/06 09:18:44;;;;;;;11.65;7.03;;;22.60;99.90;;;;;;5093483;28;20048;-46
2022/09/06 09:21:10;;;;;;;12.77;8.30;;;22.70;99.90;;;;;;5091563;28;20130;-48
2022/09/06 09:23:36;;;;;;;10.60;7.28;;;22.60;99.90;;;;;;5091423;28;20028;-46
2022/09/06 09:26:08;;;;;;;12.75;7.68;;;22.90;99.90;;;;;;5093432;28;20054;-47
2022/09/06 09:28:34;;;;;;;14.93;8.15;;;22.90;99.90;;;;;;5093601;28;20679;-48
2022/09/06 09:31:00;;;;;;;8.80;7.65;;;22.90;99.90;;;;;;5092833;28;20496;-46
2022/09/06 09:33:40;;;;;;;9.38;7.72;;;23.00;99.90;;;;;;5096900;28;20050;-45
2022/09/06 09:36:12;;;;;;;10.07;7.25;;;23.20;99.90;;;;;;5097499;27;20387;-47
2022/09/06 09:38:51;;;;;;;9.85;6.60;;;23.40;99.90;;;;;;5097142;27;20100;-46
2022/09/06 09:41:30;;;;;;;9.68;6.70;;;23.70;99.90;;;;;;5096465;28;20100;-50
2022/09/06 09:44:10;;;;;;;10.43;6.72;;;23.70;99.90;;;;;;5097108;27;20048;-48
2022/09/06 09:46:38;;;;;;;8.77;5.93;;;23.90;99.90;;;;;;5096316;28;20046;-46
2022/09/06 09:49:07;;;;;;;10.02;6.15;;;23.80;99.90;;;;;;5096440;27;20439;-47
2022/09/06 09:51:42;;;;;;;11.75;6.47;;;24.00;99.90;;;;;;5096559;28;20676;-49
2022/09/06 09:54:10;;;;;;;7.00;6.10;;;23.90;99.90;;;;;;5096436;27;20118;-50
2022/09/06 09:56:51;;;;;;;8.18;5.80;;;24.00;99.90;;;;;;5096194;28;20044;-49
2022/09/06 09:59:29;;;;;;;11.05;5.63;;;24.00;99.90;;;;;;5097231;27;20100;-48
2022/09/06 10:02:00;;;;;;;8.07;6.00;;;24.20;99.90;;;;;;5096812;28;20510;-49
2022/09/06 10:04:36;;;;;;;7.35;5.47;;;24.40;99.90;;;;;;5097907;28;20044;-47
2022/09/06 10:07:17;;;;;;;9.43;5.97;;;24.50;99.90;;;;;;5096885;28;20685;-48
2022/09/06 10:09:57;;;;;;;9.30;5.38;;;24.90;99.90;;;;;;5096653;27;20057;-47
2022/09/06 10:12:41;;;;;;;7.63;5.10;;;25.00;99.90;;;;;;5096928;27;20036;-47
2022/09/06 10:15:10;;;;;;;7.60;4.78;;;24.90;99.90;;;;;;5096904;27;20054;-49
2022/09/06 10:17:56;;;;;;;7.00;4.90;;;25.00;99.90;;;;;;5096443;28;20106;-46
2022/09/06 10:20:40;;;;;;;6.63;4.53;;;24.90;99.90;;;;;;5097198;27;20147;-45
2022/09/06 10:23:11;;;;;;;7.07;4.57;;;24.90;99.90;;;;;;5096897;27;20035;-48
2022/09/06 10:25:44;;;;;;;7.35;4.22;;;24.90;99.90;;;;;;5097004;27;20451;-49
2022/09/06 10:28:30;;;;;;;8.55;3.95;;;25.10;99.90;;;;;;5097287;27;20040;-50
2022/09/06 10:31:21;;;;;;;7.03;4.13;;;25.50;99.90;;;;;;5095576;27;20048;-46
2022/09/06 10:34:02;;;;;;;5.72;4.13;;;25.50;99.90;;;;;;5097009;27;20039;-50
2022/09/06 10:36:36;;;;;;;11.05;4.90;;;26.00;99.90;;;;;;5096021;27;20104;-46
2022/09/06 10:39:44;;;;;;;5.93;3.35;;;26.20;99.90;;;;;;5096692;27;20055;-49
2022/09/06 10:42:20;;;;;;;5.78;4.00;;;26.40;99.90;;;;;;5094398;27;20791;-47
2022/09/06 10:44:57;;;;;;;9.55;4.07;;;26.70;99.90;;;;;;5095680;27;20572;-49
2022/09/06 10:47:34;;;;;;;4.97;3.60;;;26.50;99.90;;;;;;5095126;27;20225;-49
2022/09/06 10:50:03;;;;;;;6.50;3.90;;;26.80;99.90;;;;;;5095489;27;20067;-50
2022/09/06 10:52:36;;;;;;;6.82;3.38;;;26.90;99.90;;;;;;5094436;27;20787;-48
2022/09/06 10:55:04;;;;;;;7.20;4.40;;;26.60;99.90;;;;;;5095913;27;20049;-43
2022/09/06 10:57:47;;;;;;;8.63;5.57;;;26.60;99.90;;;;;;5095472;27;20047;-49
2022/09/06 11:00:15;;;;;;;9.25;6.88;;;27.00;99.90;;;;;;5096478;27;20490;-50
2022/09/06 11:03:09;;;;;;;8.57;5.85;;;27.00;99.90;;;;;;5095919;28;20039;-46
2022/09/06 11:05:47;;;;;;;10.10;5.82;;;26.60;99.90;;;;;;5090522;27;20043;-49
2022/09/06 11:08:47;;;;;;;9.45;5.82;;;27.00;99.90;;;;;;5095243;28;20040;-50
2022/09/06 11:11:19;;;;;;;10.63;5.60;;;26.60;99.90;;;;;;5096222;27;20043;-47
2022/09/06 11:13:46;;;;;;;8.98;6.35;;;27.00;99.90;;;;;;5096459;27;20043;-47
2022/09/06 11:16:32;;;;;;;9.07;6.38;;;26.80;99.90;;;;;;5096626;27;20443;-49
2022/09/06 11:19:20;;;;;;;7.85;6.80;;;26.80;99.90;;;;;;5096984;27;20040;-47
2022/09/06 11:22:05;;;;;;;10.52;6.55;;;27.10;99.90;;;;;;5095665;27;20103;-49
2022/09/06 11:24:31;;;;;;;10.18;5.93;;;27.00;99.90;;;;;;5095555;27;20059;-46
2022/09/06 11:27:09;;;;;;;11.50;5.85;;;27.00;99.90;;;;;;5095869;27;22158;-49
2022/09/06 11:29:40;;;;;;;9.98;7.30;;;27.40;99.90;;;;;;5095082;28;20043;-49
2022/09/06 11:32:34;;;;;;;12.93;6.95;;;27.30;99.90;;;;;;5095815;27;20096;-49
2022/09/06 11:35:08;;;;;;;11.77;6.13;;;27.30;99.90;;;;;;5095935;28;20031;-49
2022/09/06 11:37:44;;;;;;;11.90;7.00;;;27.40;99.90;;;;;;5096434;27;20048;-47
2022/09/06 11:40:36;;;;;;;9.57;5.75;;;27.60;99.90;;;;;;5095180;27;21607;-47
2022/09/06 11:43:02;;;;;;;12.50;6.65;;;27.60;99.90;;;;;;5092085;27;20048;-46
2022/09/06 11:45:48;;;;;;;8.50;5.35;;;27.50;99.90;;;;;;5095301;27;20519;-50
2022/09/06 11:48:23;;;;;;;8.38;4.63;;;27.40;99.90;;;;;;5095217;28;20976;-45
2022/09/06 11:50:57;;;;;;;10.98;5.22;;;27.50;99.90;;;;;;5093554;27;20073;-51
2022/09/06 11:53:52;;;;;;;9.57;4.68;;;27.70;99.90;;;;;;5094005;27;20078;-50
2022/09/06 11:57:12;;;;;;;12.13;5.25;;;27.60;99.90;;;;;;5086407;27;20047;-49
2022/09/06 11:59:46;;;;;;;11.40;3.70;;;27.70;99.90;;;;;;5076618;28;20173;-49
2022/09/06 12:02:40;;;;;;;8.93;3.60;;;27.70;99.90;;;;;;5093963;27;20104;-46
2022/09/06 12:05:09;;;;;;;6.28;3.80;;;27.90;99.90;;;;;;5095255;27;20400;-47
2022/09/06 12:07:37;;;;;;;6.53;4.65;;;27.90;99.90;;;;;;5093283;27;20044;-44
2022/09/06 12:10:48;;;;;;;7.30;4.82;;;27.80;99.90;;;;;;5094202;27;20047;-46
2022/09/06 12:13:33;;;;;;;9.82;4.38;;;27.50;99.90;;;;;;5050093;28;20040;-49
2022/09/06 12:15:59;;;;;;;8.73;4.03;;;27.70;99.90;;;;;;5049811;28;20413;-48
2022/09/06 12:18:45;;;;;;;6.88;3.75;;;27.80;99.90;;;;;;5078546;28;20048;-49
2022/09/06 12:21:51;;;;;;;6.47;3.67;;;27.80;99.90;;;;;;5083077;27;20132;-47
2022/09/06 12:24:34;;;;;;;4.78;2.75;;;28.20;99.90;;;;;;5093683;27;20134;-48
2022/09/06 12:27:24;;;;;;;4.40;2.65;;;28.20;99.90;;;;;;5092475;28;20044;-50
2022/09/06 12:29:59;;;;;;;5.10;2.10;;;28.50;99.90;;;;;;5093379;28;20044;-48
2022/09/06 12:32:28;;;;;;;6.10;2.30;;;28.50;99.90;;;;;;5093936;28;20070;-50
2022/09/06 12:34:56;;;;;;;5.20;2.05;;;28.20;99.90;;;;;;5094966;27;20171;-49
2022/09/06 12:37:47;;;;;;;4.32;2.50;;;28.70;99.90;;;;;;5094108;28;20059;-49
2022/09/06 12:40:13;;;;;;;5.68;2.53;;;28.70;99.70;;;;;;5094364;28;20039;-47
2022/09/06 12:42:41;;;;;;;6.75;2.60;;;28.40;99.90;;;;;;5094473;28;20035;-46
2022/09/06 12:45:07;;;;;;;7.82;2.60;;;28.60;99.90;;;;;;5095528;28;20077;-49
2022/09/06 12:47:36;;;;;;;4.70;2.45;;;28.50;99.90;;;;;;5093196;27;20042;-49
2022/09/06 12:50:10;;;;;;;7.30;2.95;;;28.60;99.90;;;;;;5094267;28;20534;-49
2022/09/06 12:52:56;;;;;;;4.80;2.53;;;28.70;99.60;;;;;;5095750;27;20051;-47
2022/09/06 12:55:26;;;;;;;5.15;2.20;;;28.40;99.90;;;;;;5094163;28;20047;-48
2022/09/06 12:57:54;;;;;;;5.00;2.50;;;28.50;99.70;;;;;;5095230;28;20162;-45
2022/09/06 13:00:21;;;;;;;10.48;2.90;;;28.40;99.70;;;;;;5094175;28;20347;-49
2022/09/06 13:03:02;;;;;;;3.72;2.17;;;28.30;99.70;;;;;;5094747;28;20052;-46
2022/09/06 13:05:28;;;;;;;8.15;2.55;;;28.10;99.20;;;;;;5096185;28;20036;-46